EST,Max TemperatureF,Mean TemperatureF,Min TemperatureF,Max Dew PointF,MeanDew PointF,Min DewpointF,Max Humidity, Mean Humidity, Min Humidity, Max Sea Level PressureIn, Mean Sea Level PressureIn, Min Sea Level PressureIn, Max VisibilityMiles, Mean VisibilityMiles, Min VisibilityMiles, Max Wind SpeedMPH, Mean Wind SpeedMPH, Max Gust SpeedMPH,PrecipitationIn, CloudCover, Events, WindDirDegrees
2013-1-1,80,71,62,61,58,55,78,64,50,30.20,30.12,30.06,10,10,10,21,8,28,0.00,5,,158
2013-1-2,81,70,59,66,61,56,93,72,51,30.09,30.04,29.99,10,10,10,14,4,21,T,3,,209
2013-1-3,81,73,65,67,65,63,93,76,58,30.13,30.07,30.03,10,10,10,15,5,18,0.00,5,,179
2013-1-4,82,73,64,68,66,63,97,82,56,30.23,30.17,30.11,10,10,10,10,4,,0.00,4,,348
2013-1-5,77,72,67,69,66,64,93,83,73,30.25,30.21,30.16,10,10,7,14,5,16,T,5,Rain,358
2013-1-6,83,73,63,70,67,63,100,79,58,30.18,30.12,30.06,10,9,3,18,6,23,0.00,5,,168
2013-1-7,79,73,66,69,67,64,97,83,69,30.16,30.12,30.08,10,10,7,14,7,17,0.01,6,Rain,9
2013-1-8,82,77,71,72,70,66,90,80,69,30.20,30.15,30.09,10,9,1,18,11,26,0.33,6,Rain,114
2013-1-9,83,79,74,72,69,67,93,79,65,30.28,30.23,30.17,10,10,9,22,14,31,0.08,5,Rain,118
2013-1-10,81,78,74,70,66,60,74,63,51,30.30,30.26,30.19,10,10,10,25,15,31,T,4,Rain,101
2013-1-11,79,77,74,70,66,63,79,72,64,30.26,30.20,30.17,10,10,10,21,13,25,0.01,6,Rain,108
2013-1-12,81,77,73,65,64,63,73,66,47,30.19,30.14,30.10,10,10,10,15,10,,0.00,4,,93
2013-1-13,81,77,72,67,63,60,73,66,58,30.13,30.11,30.08,10,10,10,20,12,23,T,5,Rain,119
2013-1-14,80,73,65,66,63,61,81,70,58,30.17,30.15,30.12,10,10,10,18,9,24,T,5,Rain,131
2013-1-15,80,75,70,67,65,62,73,68,62,30.14,30.10,30.05,10,10,10,17,10,23,T,5,Rain,109
2013-1-16,82,72,62,68,64,60,93,76,58,30.11,30.06,30.02,10,10,10,18,6,25,T,4,,145
2013-1-17,81,71,61,70,65,52,90,76,62,30.09,30.04,29.97,10,10,3,24,10,29,0.10,6,Rain,177
2013-1-18,73,62,51,56,50,44,77,63,49,30.23,30.17,30.10,10,10,10,18,12,22,0.00,3,,354
2013-1-19,74,71,68,67,63,55,90,74,57,30.21,30.14,30.10,10,8,2,12,7,16,0.17,7,Rain,25
2013-1-20,79,71,63,67,64,63,100,81,62,30.14,30.07,30.02,10,8,0,14,5,22,0.00,6,Fog,353
2013-1-21,80,73,65,69,66,63,100,84,67,30.07,30.02,29.96,10,10,7,15,6,21,0.06,6,Rain,124
2013-1-22,76,69,62,63,57,49,93,70,47,30.22,30.10,30.00,10,10,10,22,12,28,0.00,6,,347
2013-1-23,76,68,59,57,53,49,78,62,46,30.30,30.25,30.20,10,10,10,15,9,20,0.00,5,,3
2013-1-24,75,66,57,54,49,39,80,57,33,30.30,30.25,30.20,10,10,10,16,7,21,0.00,2,,348
2013-1-25,76,66,55,57,53,48,84,66,47,30.29,30.23,30.19,10,10,10,13,5,23,0.00,2,,349
2013-1-26,78,67,56,58,54,47,86,65,43,30.26,30.21,30.17,10,10,10,14,5,29,0.00,2,,12
2013-1-27,79,69,59,61,56,54,84,63,42,30.29,30.25,30.21,10,10,10,16,8,20,0.00,3,,52
2013-1-28,80,76,71,67,63,60,79,67,54,30.32,30.27,30.23,10,10,10,20,14,25,0.00,4,,109
2013-1-29,79,76,72,70,66,64,87,77,67,30.23,30.19,30.13,10,10,6,21,11,26,0.02,6,Rain,131
2013-1-30,79,75,71,67,64,61,84,71,58,30.11,30.04,29.98,10,10,10,25,12,31,0.00,3,,158
2013-1-31,72,63,53,70,57,37,97,71,44,30.18,30.07,29.95,10,10,10,24,9,29,0.01,5,Rain,314